Aérodrome :
LOGIN :

S'inscrire | Disclaimer

   EN    FR    IT 

 










Légende :    VFR   VFR Marginal   IFR   IFR Intensif   IFR Très Intensif
Visi : 
Plafond : 
>= 8 km
>= 3000ft
5 à 8 km
1000 à 3000 ft
1500m à 5 km
500 à 1000 ft
800 à 1500m
200 à 500 ft
< 800m
< 200 ft
Symboles :   Orages  Brouillard  Fortes neiges  Fortes précipitations  Vent > 20 kt
SIGMETs :   Divers  Orages  Givrage  Turbulence  Onde Orograph.  Cendres Volcan.







- Altitude de l'aérodrome : 106 ft
- Code IATA : NRN


EDLV - Weeze

DERNIER METAR :
  • 220550Z 24015KT 8000 -RA BKN008 10/08 Q1006

METARs EXPIRÉS :
  • 220520Z 24019KT 9000 -RA BKN010 10/08 Q1007
  • 220450Z 24020G31KT 9999 -DZ BKN015 11/08 Q1007
  • 220420Z 24019G29KT 9999 BKN017 11/07 Q1007
  • 220350Z 24022KT 9999 BKN014 11/08 Q1007

TAF TAF EDLV
Valide du 22 à 06h jusqu'au 23 à 06h UTC


220500Z 2206/2306 24015G25KT 9999 BKN013
TEMPO 2206/2216 25020G30KT 3500 RA BR BKN008
BECMG 2216/2219 24012KT 3000 RA BR BKN007
TEMPO 2220/2304 2000 DZRA BKN004
BECMG 2303/2306 22015G30KT
Pas de NOTAMs connus pour ce terrain.



MET'MAP, la Météo Aéronautique d'un coup d'oeil ! - Copyright ORBIFLY Décembre 2007 - Disclaimer

ORBIFLY MET'MAP TEAM :

Programmation & Développement : Alexandra Zaïnal
Conception & Développement : Baudouin d'Aumeries
Co-Programmation & Développement : Marc-Olivier Méhu
Soutien technique & logistique : Manuel Goepfert

Contact : metmap@orbifly.com




SOURCES & CREDITS :

   NOAA